Ardmore Muni Information

FAA: ADM - ICAO: KADM

Ardmore Muni (Airport) Location

State Oklahoma
County Carter
City Ardmore
Ardmore Muni (Airport) is 10 miles northeast of Ardmore, OK.
Latitude 34-18-13.9444N
Longitude 097-01-14.1506W
Elevation 776ft

Ardmore Muni METARs

METAR KADM 190855Z AUTO 00000KT 10SM FEW050 21/19 A2969 RMK AO2
Altimeter 29.69"
Temperature 21.0°C (69.8°F)
Wind 0° at 0KT
Clouds few at 5,000ft
Visibility 10.0mi
Time observed: 2022-05-19T08:55:00Z

Ardmore Muni (Airport) Details

Status Operational
Activation August 1943
Ownership Public
Usage Public
Chart DALLAS-FT WORTH
ATC on-site Yes
Beacon schedule sunset-sunrise
Beacon color clear green

Ardmore Muni (Airport) Contacts

Owner CITY OF ARDMORE
Owner address 23 S. WASHINGTON, ARDMORE, OK 73401
Owner phone 580-226-2100
Manager PAUL STATEN
Manager address 56351 E. HWY 125, MONKEY ISLAND, OK 74331
Manager phone 918-257-2011

Ardmore Muni Radio Frequencies

Ardmore Muni (Airport) Radio Frequencies

UNICOM 122.95
Common traffic advisory frequency (CTAF) 118.5